This is the latest recevied weather packets stored in our database for station/object DH1NAI-6. If no packets are shown the sender has not sent any weather packets the latest 10 day(s).
| Time | Temp. | Humidity | Pressure | Rain* | Wind** | Luminosity | Snow |
|---|---|---|---|---|---|---|---|
| 1777700723 | 13.89° C | 59% | 1021 hPa | 0 mm | - | 11 W/m² | - |
| 1777700099 | 12.78° C | 64% | 1021.1 hPa | 0 mm | - | 10 W/m² | - |
| 1777699475 | 8.33° C | 83% | 1021.1 hPa | 0 mm | - | 9 W/m² | - |
| 1777698867 | 5° C | 96% | 1021.4 hPa | 0 mm | - | 8 W/m² | - |
| 1777698260 | 3.89° C | 98% | 1021.2 hPa | 0 mm | - | 8 W/m² | - |
| 1777697651 | 3.33° C | 99% | 1021.1 hPa | 0 mm | - | 7 W/m² | - |
| 1777697044 | 2.78° C | 99% | 1021.4 hPa | 0 mm | - | 7 W/m² | - |
| 1777696435 | 2.22° C | 99% | 1021.1 hPa | 0 mm | - | 5 W/m² | - |
| 1777695828 | 2.22° C | 99% | 1021.1 hPa | 0 mm | - | 4 W/m² | - |
| 1777695213 | 2.22° C | 99% | 1021.1 hPa | 0 mm | - | 3 W/m² | - |
| 1777694612 | 2.22° C | 99% | 1021.2 hPa | 0 mm | - | 2 W/m² | - |
| 1777694003 | 2.78° C | 99% | 1021.2 hPa | 0 mm | - | 1 W/m² | - |
| 1777693379 | 2.78° C | 99% | 1021.2 hPa | 0 mm | - | 0 W/m² | - |
| 1777692755 | 2.78° C | 99% | 1021.2 hPa | 0 mm | - | 0 W/m² | - |
| 1777692147 | 2.78° C | 98% | 1021.4 hPa | 0 mm | - | 0 W/m² | - |
| 1777691540 | 3.33° C | 99% | 1021.3 hPa | 0 mm | - | 0 W/m² | - |
| 1777690931 | 2.78° C | 99% | 1021.3 hPa | 0 mm | - | 0 W/m² | - |
| 1777690324 | 2.78° C | 99% | 1021.3 hPa | 0 mm | - | 0 W/m² | - |
| 1777689715 | 2.78° C | 99% | 1021.5 hPa | 0 mm | - | 0 W/m² | - |
| 1777689108 | 2.78° C | 99% | 1021.7 hPa | 0 mm | - | 0 W/m² | - |
| 1777688493 | 2.22° C | 99% | 1021.6 hPa | 0 mm | - | 0 W/m² | - |
| 1777687892 | 1.67° C | 99% | 1021.3 hPa | 0 mm | - | 0 W/m² | - |
| 1777687283 | 1.11° C | 99% | 1021.7 hPa | 0 mm | - | 0 W/m² | - |
| 1777686659 | 1.11° C | 99% | 1021.5 hPa | 0 mm | - | 0 W/m² | - |
| 1777686035 | 1.11° C | 99% | 1021.7 hPa | 0 mm | - | 0 W/m² | - |
* Rain latest hour (hover to see other rain measurements)
** Current wind speed in m/s (hover to see current wind gust speed)